sensor_id;sensor_type;location;lat;lon;timestamp;temperature;humidity
20158;DHT22;10239;56.820;24.416;2022-11-04T00:01:46;10.60;99.90
20158;DHT22;10239;56.820;24.416;2022-11-04T00:04:16;10.60;99.90
20158;DHT22;10239;56.820;24.416;2022-11-04T00:06:44;10.80;99.90
20158;DHT22;10239;56.820;24.416;2022-11-04T00:09:17;10.80;99.90
20158;DHT22;10239;56.820;24.416;2022-11-04T00:11:45;10.30;99.90
20158;DHT22;10239;56.820;24.416;2022-11-04T00:14:32;10.20;99.90
20158;DHT22;10239;56.820;24.416;2022-11-04T00:17:01;10.20;99.90
20158;DHT22;10239;56.820;24.416;2022-11-04T00:19:50;10.10;99.90
20158;DHT22;10239;56.820;24.416;2022-11-04T00:22:38;10.20;99.90
20158;DHT22;10239;56.820;24.416;2022-11-04T00:25:27;10.40;99.90
20158;DHT22;10239;56.820;24.416;2022-11-04T00:28:15;10.60;99.90
20158;DHT22;10239;56.820;24.416;2022-11-04T00:31:04;10.30;99.90
20158;DHT22;10239;56.820;24.416;2022-11-04T00:33:51;10.50;99.90
20158;DHT22;10239;56.820;24.416;2022-11-04T00:36:20;10.70;99.90
20158;DHT22;10239;56.820;24.416;2022-11-04T00:38:49;10.70;99.90
20158;DHT22;10239;56.820;24.416;2022-11-04T00:41:17;10.80;99.90
20158;DHT22;10239;56.820;24.416;2022-11-04T00:43:59;10.90;99.90
20158;DHT22;10239;56.820;24.416;2022-11-04T00:46:28;11.00;99.90
20158;DHT22;10239;56.820;24.416;2022-11-04T00:48:56;11.00;99.90
20158;DHT22;10239;56.820;24.416;2022-11-04T00:51:24;11.00;99.90
20158;DHT22;10239;56.820;24.416;2022-11-04T00:53:52;11.00;99.90
20158;DHT22;10239;56.820;24.416;2022-11-04T00:56:21;11.00;99.90
20158;DHT22;10239;56.820;24.416;2022-11-04T00:58:48;11.00;99.90
20158;DHT22;10239;56.820;24.416;2022-11-04T01:01:17;11.10;99.90
20158;DHT22;10239;56.820;24.416;2022-11-04T01:03:47;11.10;99.90
20158;DHT22;10239;56.820;24.416;2022-11-04T01:06:16;11.00;99.90
20158;DHT22;10239;56.820;24.416;2022-11-04T01:08:43;11.00;99.90
20158;DHT22;10239;56.820;24.416;2022-11-04T01:11:12;10.80;99.90
20158;DHT22;10239;56.820;24.416;2022-11-04T01:13:40;10.80;99.90
20158;DHT22;10239;56.820;24.416;2022-11-04T01:16:09;10.90;99.90
20158;DHT22;10239;56.820;24.416;2022-11-04T01:18:37;10.90;99.90
20158;DHT22;10239;56.820;24.416;2022-11-04T01:21:06;11.00;99.90
20158;DHT22;10239;56.820;24.416;2022-11-04T01:23:35;11.00;99.90
20158;DHT22;10239;56.820;24.416;2022-11-04T01:26:14;10.90;99.90
20158;DHT22;10239;56.820;24.416;2022-11-04T01:28:42;10.90;99.90
20158;DHT22;10239;56.820;24.416;2022-11-04T01:31:14;11.00;99.90
20158;DHT22;10239;56.820;24.416;2022-11-04T01:33:43;11.00;99.90
20158;DHT22;10239;56.820;24.416;2022-11-04T01:36:11;11.00;99.90
20158;DHT22;10239;56.820;24.416;2022-11-04T01:38:39;11.00;99.90
20158;DHT22;10239;56.820;24.416;2022-11-04T01:41:08;10.90;99.90
20158;DHT22;10239;56.820;24.416;2022-11-04T01:49:03;10.90;99.90
20158;DHT22;10239;56.820;24.416;2022-11-04T01:51:35;10.90;99.90
20158;DHT22;10239;56.820;24.416;2022-11-04T01:54:04;10.90;99.90
20158;DHT22;10239;56.820;24.416;2022-11-04T01:56:33;10.90;99.90
20158;DHT22;10239;56.820;24.416;2022-11-04T01:59:06;10.90;99.90
20158;DHT22;10239;56.820;24.416;2022-11-04T02:01:35;10.90;99.90
20158;DHT22;10239;56.820;24.416;2022-11-04T02:04:03;10.80;99.90
20158;DHT22;10239;56.820;24.416;2022-11-04T02:06:55;10.90;99.90
20158;DHT22;10239;56.820;24.416;2022-11-04T02:09:25;10.90;99.90
20158;DHT22;10239;56.820;24.416;2022-11-04T02:11:53;10.80;99.90
20158;DHT22;10239;56.820;24.416;2022-11-04T02:14:40;10.80;99.90
20158;DHT22;10239;56.820;24.416;2022-11-04T02:20:10;10.80;99.90
20158;DHT22;10239;56.820;24.416;2022-11-04T02:25:48;10.80;99.90
20158;DHT22;10239;56.820;24.416;2022-11-04T02:34:15;10.90;99.90
20158;DHT22;10239;56.820;24.416;2022-11-04T02:39:50;10.90;99.90
20158;DHT22;10239;56.820;24.416;2022-11-04T02:42:27;10.90;99.90
20158;DHT22;10239;56.820;24.416;2022-11-04T02:45:14;10.90;99.90
20158;DHT22;10239;56.820;24.416;2022-11-04T02:47:45;10.80;99.90
20158;DHT22;10239;56.820;24.416;2022-11-04T02:55:34;10.90;99.90
20158;DHT22;10239;56.820;24.416;2022-11-04T02:58:13;10.90;99.90
20158;DHT22;10239;56.820;24.416;2022-11-04T03:00:43;10.90;99.90
20158;DHT22;10239;56.820;24.416;2022-11-04T03:03:16;10.80;99.90
20158;DHT22;10239;56.820;24.416;2022-11-04T03:05:48;10.80;99.90
20158;DHT22;10239;56.820;24.416;2022-11-04T03:08:26;10.80;99.90
20158;DHT22;10239;56.820;24.416;2022-11-04T03:11:02;10.60;99.90
20158;DHT22;10239;56.820;24.416;2022-11-04T03:13:38;10.60;99.90
20158;DHT22;10239;56.820;24.416;2022-11-04T03:16:22;10.50;99.90
20158;DHT22;10239;56.820;24.416;2022-11-04T03:22:08;10.40;99.90
20158;DHT22;10239;56.820;24.416;2022-11-04T03:24:37;10.50;99.90
20158;DHT22;10239;56.820;24.416;2022-11-04T03:27:34;10.60;99.90
20158;DHT22;10239;56.820;24.416;2022-11-04T03:30:11;10.60;99.90
20158;DHT22;10239;56.820;24.416;2022-11-04T03:32:45;10.70;99.90
20158;DHT22;10239;56.820;24.416;2022-11-04T03:35:17;10.80;99.90
20158;DHT22;10239;56.820;24.416;2022-11-04T03:37:47;10.70;99.90
20158;DHT22;10239;56.820;24.416;2022-11-04T03:40:16;10.80;99.90
20158;DHT22;10239;56.820;24.416;2022-11-04T03:42:58;10.80;99.90
20158;DHT22;10239;56.820;24.416;2022-11-04T03:45:26;10.80;99.90
20158;DHT22;10239;56.820;24.416;2022-11-04T03:47:55;10.80;99.90
20158;DHT22;10239;56.820;24.416;2022-11-04T03:50:29;10.90;99.90
20158;DHT22;10239;56.820;24.416;2022-11-04T03:52:58;11.00;99.90
20158;DHT22;10239;56.820;24.416;2022-11-04T03:55:57;10.90;99.90
20158;DHT22;10239;56.820;24.416;2022-11-04T04:06:32;10.90;99.90
20158;DHT22;10239;56.820;24.416;2022-11-04T04:09:20;10.90;99.90
20158;DHT22;10239;56.820;24.416;2022-11-04T04:12:02;10.90;99.90
20158;DHT22;10239;56.820;24.416;2022-11-04T04:14:39;10.90;99.90
20158;DHT22;10239;56.820;24.416;2022-11-04T04:17:53;10.90;99.90
20158;DHT22;10239;56.820;24.416;2022-11-04T04:20:25;10.90;99.90
20158;DHT22;10239;56.820;24.416;2022-11-04T04:23:00;10.80;99.90
20158;DHT22;10239;56.820;24.416;2022-11-04T04:25:30;10.70;99.90
20158;DHT22;10239;56.820;24.416;2022-11-04T04:28:18;10.70;99.90
20158;DHT22;10239;56.820;24.416;2022-11-04T04:30:46;10.80;99.90
20158;DHT22;10239;56.820;24.416;2022-11-04T04:33:18;10.80;99.90
20158;DHT22;10239;56.820;24.416;2022-11-04T04:35:50;10.90;99.90
20158;DHT22;10239;56.820;24.416;2022-11-04T04:38:25;10.90;99.90
20158;DHT22;10239;56.820;24.416;2022-11-04T04:41:30;10.80;99.90
20158;DHT22;10239;56.820;24.416;2022-11-04T04:44:24;10.70;99.90
20158;DHT22;10239;56.820;24.416;2022-11-04T04:47:14;10.60;99.90
20158;DHT22;10239;56.820;24.416;2022-11-04T04:50:02;10.60;99.90
20158;DHT22;10239;56.820;24.416;2022-11-04T04:52:33;10.60;99.90
20158;DHT22;10239;56.820;24.416;2022-11-04T04:55:03;10.50;99.90
20158;DHT22;10239;56.820;24.416;2022-11-04T04:57:31;10.40;99.90
20158;DHT22;10239;56.820;24.416;2022-11-04T04:59:58;10.40;99.90
20158;DHT22;10239;56.820;24.416;2022-11-04T05:02:26;10.50;99.90
20158;DHT22;10239;56.820;24.416;2022-11-04T05:04:56;10.60;99.90
20158;DHT22;10239;56.820;24.416;2022-11-04T05:07:26;10.50;99.90
20158;DHT22;10239;56.820;24.416;2022-11-04T05:09:53;10.60;99.90
20158;DHT22;10239;56.820;24.416;2022-11-04T05:12:20;10.60;99.90
20158;DHT22;10239;56.820;24.416;2022-11-04T05:14:48;10.70;99.90
20158;DHT22;10239;56.820;24.416;2022-11-04T05:17:15;10.60;99.90
20158;DHT22;10239;56.820;24.416;2022-11-04T05:19:43;10.70;99.90
20158;DHT22;10239;56.820;24.416;2022-11-04T05:22:10;10.70;99.90
20158;DHT22;10239;56.820;24.416;2022-11-04T05:24:37;10.80;99.90
20158;DHT22;10239;56.820;24.416;2022-11-04T05:27:05;10.60;99.90
20158;DHT22;10239;56.820;24.416;2022-11-04T05:29:32;10.40;99.90
20158;DHT22;10239;56.820;24.416;2022-11-04T05:32:00;10.50;99.90
20158;DHT22;10239;56.820;24.416;2022-11-04T05:34:27;10.60;99.90
20158;DHT22;10239;56.820;24.416;2022-11-04T05:36:55;10.40;99.90
20158;DHT22;10239;56.820;24.416;2022-11-04T05:39:23;10.30;99.90
20158;DHT22;10239;56.820;24.416;2022-11-04T05:41:51;10.30;99.90
20158;DHT22;10239;56.820;24.416;2022-11-04T05:44:19;10.20;99.90
20158;DHT22;10239;56.820;24.416;2022-11-04T05:46:46;10.40;99.90
20158;DHT22;10239;56.820;24.416;2022-11-04T05:49:14;10.30;99.90
20158;DHT22;10239;56.820;24.416;2022-11-04T05:51:41;10.50;99.90
20158;DHT22;10239;56.820;24.416;2022-11-04T05:54:09;10.60;99.90
20158;DHT22;10239;56.820;24.416;2022-11-04T05:56:37;10.60;99.90
20158;DHT22;10239;56.820;24.416;2022-11-04T05:59:04;10.60;99.90
20158;DHT22;10239;56.820;24.416;2022-11-04T06:01:39;10.50;99.90
20158;DHT22;10239;56.820;24.416;2022-11-04T06:04:13;10.50;99.90
20158;DHT22;10239;56.820;24.416;2022-11-04T06:06:41;10.30;99.90
20158;DHT22;10239;56.820;24.416;2022-11-04T06:09:08;10.20;99.90
20158;DHT22;10239;56.820;24.416;2022-11-04T06:11:37;10.30;99.90
20158;DHT22;10239;56.820;24.416;2022-11-04T06:14:05;10.60;99.90
20158;DHT22;10239;56.820;24.416;2022-11-04T06:16:33;10.60;99.90
20158;DHT22;10239;56.820;24.416;2022-11-04T06:19:01;10.60;99.90
20158;DHT22;10239;56.820;24.416;2022-11-04T06:21:35;10.60;99.90
20158;DHT22;10239;56.820;24.416;2022-11-04T06:24:03;10.60;99.90
20158;DHT22;10239;56.820;24.416;2022-11-04T06:26:31;10.70;99.90
20158;DHT22;10239;56.820;24.416;2022-11-04T06:28:58;10.80;99.90
20158;DHT22;10239;56.820;24.416;2022-11-04T06:31:26;10.60;99.90
20158;DHT22;10239;56.820;24.416;2022-11-04T06:33:54;10.30;99.90
20158;DHT22;10239;56.820;24.416;2022-11-04T06:36:21;10.40;99.90
20158;DHT22;10239;56.820;24.416;2022-11-04T06:38:49;10.20;99.90
20158;DHT22;10239;56.820;24.416;2022-11-04T06:41:17;10.30;99.90
20158;DHT22;10239;56.820;24.416;2022-11-04T06:43:44;10.40;99.90
20158;DHT22;10239;56.820;24.416;2022-11-04T06:48:58;10.20;99.90
20158;DHT22;10239;56.820;24.416;2022-11-04T06:51:26;10.20;99.90
20158;DHT22;10239;56.820;24.416;2022-11-04T06:53:54;10.10;99.90
20158;DHT22;10239;56.820;24.416;2022-11-04T06:56:22;10.20;99.90
20158;DHT22;10239;56.820;24.416;2022-11-04T06:58:50;10.00;99.90
20158;DHT22;10239;56.820;24.416;2022-11-04T07:01:20;10.20;99.90
20158;DHT22;10239;56.820;24.416;2022-11-04T07:03:50;10.60;99.90
20158;DHT22;10239;56.820;24.416;2022-11-04T07:06:18;10.70;99.90
20158;DHT22;10239;56.820;24.416;2022-11-04T07:08:47;10.90;99.90
20158;DHT22;10239;56.820;24.416;2022-11-04T07:11:17;10.60;99.90
20158;DHT22;10239;56.820;24.416;2022-11-04T07:13:46;10.30;99.90
20158;DHT22;10239;56.820;24.416;2022-11-04T07:16:15;10.20;99.90
20158;DHT22;10239;56.820;24.416;2022-11-04T07:18:43;10.50;99.90
20158;DHT22;10239;56.820;24.416;2022-11-04T07:21:11;10.70;99.90
20158;DHT22;10239;56.820;24.416;2022-11-04T07:23:39;10.90;99.90
20158;DHT22;10239;56.820;24.416;2022-11-04T07:26:07;10.60;99.90
20158;DHT22;10239;56.820;24.416;2022-11-04T07:28:35;10.70;99.90
20158;DHT22;10239;56.820;24.416;2022-11-04T07:31:05;10.50;99.90
20158;DHT22;10239;56.820;24.416;2022-11-04T07:33:33;10.70;99.90
20158;DHT22;10239;56.820;24.416;2022-11-04T07:36:06;10.60;99.90
20158;DHT22;10239;56.820;24.416;2022-11-04T07:38:34;10.90;99.90
20158;DHT22;10239;56.820;24.416;2022-11-04T07:41:02;11.20;99.90
20158;DHT22;10239;56.820;24.416;2022-11-04T07:43:30;11.20;99.90
20158;DHT22;10239;56.820;24.416;2022-11-04T07:46:02;11.60;99.90
20158;DHT22;10239;56.820;24.416;2022-11-04T07:48:30;11.60;99.90
20158;DHT22;10239;56.820;24.416;2022-11-04T07:50:58;11.80;99.90
20158;DHT22;10239;56.820;24.416;2022-11-04T07:53:29;11.60;99.90
20158;DHT22;10239;56.820;24.416;2022-11-04T07:55:57;11.70;99.90
20158;DHT22;10239;56.820;24.416;2022-11-04T07:58:25;11.90;99.90
20158;DHT22;10239;56.820;24.416;2022-11-04T08:01:00;11.80;99.90
20158;DHT22;10239;56.820;24.416;2022-11-04T08:03:28;12.00;99.90
20158;DHT22;10239;56.820;24.416;2022-11-04T08:05:57;12.00;99.90
20158;DHT22;10239;56.820;24.416;2022-11-04T08:08:26;12.10;99.90
20158;DHT22;10239;56.820;24.416;2022-11-04T08:10:56;11.90;99.90
20158;DHT22;10239;56.820;24.416;2022-11-04T08:13:29;12.20;99.90
20158;DHT22;10239;56.820;24.416;2022-11-04T08:16:00;12.30;99.90
20158;DHT22;10239;56.820;24.416;2022-11-04T08:18:33;12.40;99.90
20158;DHT22;10239;56.820;24.416;2022-11-04T08:21:02;12.30;99.90
20158;DHT22;10239;56.820;24.416;2022-11-04T08:23:31;12.40;99.90
20158;DHT22;10239;56.820;24.416;2022-11-04T08:25:59;12.40;99.90
20158;DHT22;10239;56.820;24.416;2022-11-04T08:28:27;12.50;99.90
20158;DHT22;10239;56.820;24.416;2022-11-04T08:30:56;12.60;99.90
20158;DHT22;10239;56.820;24.416;2022-11-04T08:33:26;12.30;99.90
20158;DHT22;10239;56.820;24.416;2022-11-04T08:35:59;12.50;99.90
20158;DHT22;10239;56.820;24.416;2022-11-04T08:38:27;12.60;99.90
20158;DHT22;10239;56.820;24.416;2022-11-04T08:40:59;12.80;99.90
20158;DHT22;10239;56.820;24.416;2022-11-04T08:43:27;12.90;99.90
20158;DHT22;10239;56.820;24.416;2022-11-04T08:45:55;12.50;99.90
20158;DHT22;10239;56.820;24.416;2022-11-04T08:48:23;12.30;99.90
20158;DHT22;10239;56.820;24.416;2022-11-04T08:50:52;12.70;99.90
20158;DHT22;10239;56.820;24.416;2022-11-04T08:53:21;12.40;99.90
20158;DHT22;10239;56.820;24.416;2022-11-04T08:55:48;12.50;99.90
20158;DHT22;10239;56.820;24.416;2022-11-04T08:58:17;12.60;99.90
20158;DHT22;10239;56.820;24.416;2022-11-04T09:00:45;12.60;99.90
20158;DHT22;10239;56.820;24.416;2022-11-04T09:03:12;13.00;99.90
20158;DHT22;10239;56.820;24.416;2022-11-04T09:05:41;12.80;99.90
20158;DHT22;10239;56.820;24.416;2022-11-04T09:08:15;12.70;99.90
20158;DHT22;10239;56.820;24.416;2022-11-04T09:10:45;12.50;99.90
20158;DHT22;10239;56.820;24.416;2022-11-04T09:13:14;12.20;99.90
20158;DHT22;10239;56.820;24.416;2022-11-04T09:15:42;12.20;99.90
20158;DHT22;10239;56.820;24.416;2022-11-04T09:18:10;12.70;99.90
20158;DHT22;10239;56.820;24.416;2022-11-04T09:20:38;13.00;99.90
20158;DHT22;10239;56.820;24.416;2022-11-04T09:23:08;12.80;99.90
20158;DHT22;10239;56.820;24.416;2022-11-04T09:25:37;13.10;99.90
20158;DHT22;10239;56.820;24.416;2022-11-04T09:28:04;13.50;99.90
20158;DHT22;10239;56.820;24.416;2022-11-04T09:30:32;13.60;99.90
20158;DHT22;10239;56.820;24.416;2022-11-04T09:33:00;14.00;99.90
20158;DHT22;10239;56.820;24.416;2022-11-04T09:35:28;13.70;99.90
20158;DHT22;10239;56.820;24.416;2022-11-04T09:37:58;14.10;99.90
20158;DHT22;10239;56.820;24.416;2022-11-04T09:40:27;14.10;99.90
20158;DHT22;10239;56.820;24.416;2022-11-04T09:45:27;13.50;99.90
20158;DHT22;10239;56.820;24.416;2022-11-04T09:48:05;13.20;99.90
20158;DHT22;10239;56.820;24.416;2022-11-04T09:50:54;12.90;99.90
20158;DHT22;10239;56.820;24.416;2022-11-04T09:53:30;12.70;99.90
20158;DHT22;10239;56.820;24.416;2022-11-04T09:56:21;13.10;99.90
20158;DHT22;10239;56.820;24.416;2022-11-04T09:58:50;12.80;99.90
20158;DHT22;10239;56.820;24.416;2022-11-04T10:01:53;13.40;99.90
20158;DHT22;10239;56.820;24.416;2022-11-04T10:07:33;12.60;99.90
20158;DHT22;10239;56.820;24.416;2022-11-04T10:24:45;14.00;99.90
20158;DHT22;10239;56.820;24.416;2022-11-04T10:27:25;14.90;99.90
20158;DHT22;10239;56.820;24.416;2022-11-04T10:30:06;15.30;99.90
20158;DHT22;10239;56.820;24.416;2022-11-04T10:35:44;14.50;99.90
20158;DHT22;10239;56.820;24.416;2022-11-04T10:38:17;14.40;99.90
20158;DHT22;10239;56.820;24.416;2022-11-04T10:40:49;14.20;99.90
20158;DHT22;10239;56.820;24.416;2022-11-04T10:43:25;14.10;99.90
20158;DHT22;10239;56.820;24.416;2022-11-04T10:48:57;13.90;99.90
20158;DHT22;10239;56.820;24.416;2022-11-04T10:51:26;14.00;99.90
20158;DHT22;10239;56.820;24.416;2022-11-04T10:53:56;13.90;99.90
20158;DHT22;10239;56.820;24.416;2022-11-04T10:59:27;13.70;99.90
20158;DHT22;10239;56.820;24.416;2022-11-04T11:01:57;13.80;99.90
20158;DHT22;10239;56.820;24.416;2022-11-04T11:04:36;13.70;99.90
20158;DHT22;10239;56.820;24.416;2022-11-04T11:07:06;13.70;99.90
20158;DHT22;10239;56.820;24.416;2022-11-04T11:09:36;13.20;99.90
20158;DHT22;10239;56.820;24.416;2022-11-04T11:14:59;13.60;99.90
20158;DHT22;10239;56.820;24.416;2022-11-04T11:17:44;13.20;99.90
20158;DHT22;10239;56.820;24.416;2022-11-04T11:22:44;12.60;99.90
20158;DHT22;10239;56.820;24.416;2022-11-04T11:25:20;12.50;99.90
20158;DHT22;10239;56.820;24.416;2022-11-04T11:28:04;12.60;99.90
20158;DHT22;10239;56.820;24.416;2022-11-04T11:31:01;12.60;99.90
20158;DHT22;10239;56.820;24.416;2022-11-04T11:33:34;12.80;99.90
20158;DHT22;10239;56.820;24.416;2022-11-04T11:36:06;13.10;99.90
20158;DHT22;10239;56.820;24.416;2022-11-04T11:39:00;12.90;99.90
20158;DHT22;10239;56.820;24.416;2022-11-04T11:41:32;13.00;99.90
20158;DHT22;10239;56.820;24.416;2022-11-04T11:44:29;13.20;99.90
20158;DHT22;10239;56.820;24.416;2022-11-04T11:47:06;13.40;99.90
20158;DHT22;10239;56.820;24.416;2022-11-04T11:49:36;13.00;99.90
20158;DHT22;10239;56.820;24.416;2022-11-04T11:54:53;12.70;99.90
20158;DHT22;10239;56.820;24.416;2022-11-04T12:00:08;12.60;99.90
20158;DHT22;10239;56.820;24.416;2022-11-04T12:03:13;12.50;99.90
20158;DHT22;10239;56.820;24.416;2022-11-04T12:20:32;12.00;99.90
20158;DHT22;10239;56.820;24.416;2022-11-04T12:23:29;12.00;99.90
20158;DHT22;10239;56.820;24.416;2022-11-04T12:29:21;11.90;99.90
20158;DHT22;10239;56.820;24.416;2022-11-04T12:35:22;12.10;99.90
20158;DHT22;10239;56.820;24.416;2022-11-04T12:38:15;12.40;99.90
20158;DHT22;10239;56.820;24.416;2022-11-04T12:44:29;12.50;99.90
20158;DHT22;10239;56.820;24.416;2022-11-04T12:52:26;12.50;99.90
20158;DHT22;10239;56.820;24.416;2022-11-04T13:00:36;12.80;99.90
20158;DHT22;10239;56.820;24.416;2022-11-04T13:05:45;12.70;99.90
20158;DHT22;10239;56.820;24.416;2022-11-04T13:14:22;12.50;99.90
20158;DHT22;10239;56.820;24.416;2022-11-04T13:16:59;12.50;99.90
20158;DHT22;10239;56.820;24.416;2022-11-04T13:19:43;12.40;99.90
20158;DHT22;10239;56.820;24.416;2022-11-04T13:22:16;12.40;99.90
20158;DHT22;10239;56.820;24.416;2022-11-04T13:25:05;12.50;99.90
20158;DHT22;10239;56.820;24.416;2022-11-04T13:27:40;12.40;99.90
20158;DHT22;10239;56.820;24.416;2022-11-04T13:30:18;12.20;99.90
20158;DHT22;10239;56.820;24.416;2022-11-04T13:33:01;12.20;99.90
20158;DHT22;10239;56.820;24.416;2022-11-04T13:38:17;12.00;99.90
20158;DHT22;10239;56.820;24.416;2022-11-04T13:43:56;12.00;99.90
20158;DHT22;10239;56.820;24.416;2022-11-04T13:46:31;12.10;99.90
20158;DHT22;10239;56.820;24.416;2022-11-04T13:52:04;11.90;99.90
20158;DHT22;10239;56.820;24.416;2022-11-04T13:54:45;11.70;99.90
20158;DHT22;10239;56.820;24.416;2022-11-04T13:57:26;11.70;99.90
20158;DHT22;10239;56.820;24.416;2022-11-04T14:02:44;11.60;99.90
20158;DHT22;10239;56.820;24.416;2022-11-04T14:10:59;11.70;99.90
20158;DHT22;10239;56.820;24.416;2022-11-04T14:18:45;11.70;99.90
20158;DHT22;10239;56.820;24.416;2022-11-04T14:21:25;11.60;99.90
20158;DHT22;10239;56.820;24.416;2022-11-04T14:23:56;11.60;99.90
20158;DHT22;10239;56.820;24.416;2022-11-04T14:26:40;11.50;99.90
20158;DHT22;10239;56.820;24.416;2022-11-04T14:29:25;11.50;99.90
20158;DHT22;10239;56.820;24.416;2022-11-04T14:31:56;11.40;99.90
20158;DHT22;10239;56.820;24.416;2022-11-04T14:34:37;11.50;99.90
20158;DHT22;10239;56.820;24.416;2022-11-04T14:37:25;11.40;99.90
20158;DHT22;10239;56.820;24.416;2022-11-04T14:39:57;11.30;99.90
20158;DHT22;10239;56.820;24.416;2022-11-04T14:42:44;11.30;99.90
20158;DHT22;10239;56.820;24.416;2022-11-04T14:45:19;11.30;99.90
20158;DHT22;10239;56.820;24.416;2022-11-04T14:47:51;11.30;99.90
20158;DHT22;10239;56.820;24.416;2022-11-04T14:50:26;11.30;99.90
20158;DHT22;10239;56.820;24.416;2022-11-04T14:52:59;11.30;99.90
20158;DHT22;10239;56.820;24.416;2022-11-04T14:55:31;11.30;99.90
20158;DHT22;10239;56.820;24.416;2022-11-04T14:58:25;11.20;99.90
20158;DHT22;10239;56.820;24.416;2022-11-04T15:00:58;11.20;99.90
20158;DHT22;10239;56.820;24.416;2022-11-04T15:03:32;11.20;99.90
20158;DHT22;10239;56.820;24.416;2022-11-04T15:06:27;11.10;99.90
20158;DHT22;10239;56.820;24.416;2022-11-04T15:09:23;11.20;99.90
20158;DHT22;10239;56.820;24.416;2022-11-04T15:12:12;11.00;99.90
20158;DHT22;10239;56.820;24.416;2022-11-04T15:14:59;10.90;99.90
20158;DHT22;10239;56.820;24.416;2022-11-04T15:17:31;10.90;99.90
20158;DHT22;10239;56.820;24.416;2022-11-04T15:20:01;10.80;99.90
20158;DHT22;10239;56.820;24.416;2022-11-04T15:22:31;10.80;99.90
20158;DHT22;10239;56.820;24.416;2022-11-04T15:25:02;10.60;99.90
20158;DHT22;10239;56.820;24.416;2022-11-04T15:27:33;10.70;99.90
20158;DHT22;10239;56.820;24.416;2022-11-04T15:30:02;10.40;99.90
20158;DHT22;10239;56.820;24.416;2022-11-04T15:32:30;10.60;99.90
20158;DHT22;10239;56.820;24.416;2022-11-04T15:34:59;10.70;99.90
20158;DHT22;10239;56.820;24.416;2022-11-04T15:37:28;10.70;99.90
20158;DHT22;10239;56.820;24.416;2022-11-04T15:39:57;10.50;99.90
20158;DHT22;10239;56.820;24.416;2022-11-04T15:42:28;10.40;99.90
20158;DHT22;10239;56.820;24.416;2022-11-04T15:53:33;10.60;99.90
20158;DHT22;10239;56.820;24.416;2022-11-04T15:56:03;10.40;99.90
20158;DHT22;10239;56.820;24.416;2022-11-04T15:58:30;10.50;99.90
20158;DHT22;10239;56.820;24.416;2022-11-04T16:00:58;10.60;99.90
20158;DHT22;10239;56.820;24.416;2022-11-04T16:03:25;10.60;99.90
20158;DHT22;10239;56.820;24.416;2022-11-04T16:06:07;10.40;99.90
20158;DHT22;10239;56.820;24.416;2022-11-04T16:08:36;10.50;99.90
20158;DHT22;10239;56.820;24.416;2022-11-04T16:11:12;10.40;99.90
20158;DHT22;10239;56.820;24.416;2022-11-04T16:13:41;10.40;99.90
20158;DHT22;10239;56.820;24.416;2022-11-04T16:16:24;10.30;99.90
20158;DHT22;10239;56.820;24.416;2022-11-04T16:18:57;10.30;99.90
20158;DHT22;10239;56.820;24.416;2022-11-04T16:21:30;10.30;99.90
20158;DHT22;10239;56.820;24.416;2022-11-04T16:24:05;10.40;99.90
20158;DHT22;10239;56.820;24.416;2022-11-04T16:26:39;10.30;99.90
20158;DHT22;10239;56.820;24.416;2022-11-04T16:29:13;10.30;99.90
20158;DHT22;10239;56.820;24.416;2022-11-04T16:31:42;10.40;99.90
20158;DHT22;10239;56.820;24.416;2022-11-04T16:34:13;10.50;99.90
20158;DHT22;10239;56.820;24.416;2022-11-04T16:36:41;10.20;99.90
20158;DHT22;10239;56.820;24.416;2022-11-04T16:39:08;10.30;99.90
20158;DHT22;10239;56.820;24.416;2022-11-04T16:41:39;10.40;99.90
20158;DHT22;10239;56.820;24.416;2022-11-04T16:44:17;10.20;99.90
20158;DHT22;10239;56.820;24.416;2022-11-04T16:46:46;10.30;99.90
20158;DHT22;10239;56.820;24.416;2022-11-04T16:49:15;10.30;99.90
20158;DHT22;10239;56.820;24.416;2022-11-04T16:51:45;10.20;99.90
20158;DHT22;10239;56.820;24.416;2022-11-04T16:54:14;10.20;99.90
20158;DHT22;10239;56.820;24.416;2022-11-04T16:56:41;10.10;99.90
20158;DHT22;10239;56.820;24.416;2022-11-04T16:59:10;10.10;99.90
20158;DHT22;10239;56.820;24.416;2022-11-04T17:01:38;9.90;99.90
20158;DHT22;10239;56.820;24.416;2022-11-04T17:04:07;10.00;99.90
20158;DHT22;10239;56.820;24.416;2022-11-04T17:06:35;9.90;99.90
20158;DHT22;10239;56.820;24.416;2022-11-04T17:09:09;9.80;99.90
20158;DHT22;10239;56.820;24.416;2022-11-04T17:11:43;9.50;99.90
20158;DHT22;10239;56.820;24.416;2022-11-04T17:14:11;9.50;99.90
20158;DHT22;10239;56.820;24.416;2022-11-04T17:16:40;9.40;99.90
20158;DHT22;10239;56.820;24.416;2022-11-04T17:19:14;9.30;99.90
20158;DHT22;10239;56.820;24.416;2022-11-04T17:21:43;9.40;99.90
20158;DHT22;10239;56.820;24.416;2022-11-04T17:24:12;9.40;99.90
20158;DHT22;10239;56.820;24.416;2022-11-04T17:26:39;9.40;99.90
20158;DHT22;10239;56.820;24.416;2022-11-04T17:29:07;9.40;99.90
20158;DHT22;10239;56.820;24.416;2022-11-04T17:31:43;9.40;99.90
20158;DHT22;10239;56.820;24.416;2022-11-04T17:34:11;9.40;99.90
20158;DHT22;10239;56.820;24.416;2022-11-04T17:36:39;9.30;99.90
20158;DHT22;10239;56.820;24.416;2022-11-04T17:39:06;9.30;99.90
20158;DHT22;10239;56.820;24.416;2022-11-04T17:41:34;9.30;99.90
20158;DHT22;10239;56.820;24.416;2022-11-04T17:44:19;9.30;99.90
20158;DHT22;10239;56.820;24.416;2022-11-04T17:46:47;9.20;99.90
20158;DHT22;10239;56.820;24.416;2022-11-04T17:49:19;9.10;99.90
20158;DHT22;10239;56.820;24.416;2022-11-04T17:51:52;9.00;99.90
20158;DHT22;10239;56.820;24.416;2022-11-04T17:54:21;9.00;99.90
20158;DHT22;10239;56.820;24.416;2022-11-04T17:56:49;8.90;99.90
20158;DHT22;10239;56.820;24.416;2022-11-04T17:59:16;8.80;99.90
20158;DHT22;10239;56.820;24.416;2022-11-04T18:01:44;8.80;99.90
20158;DHT22;10239;56.820;24.416;2022-11-04T18:04:14;8.80;99.90
20158;DHT22;10239;56.820;24.416;2022-11-04T18:06:42;8.70;99.90
20158;DHT22;10239;56.820;24.416;2022-11-04T18:09:11;8.70;99.90
20158;DHT22;10239;56.820;24.416;2022-11-04T18:11:38;8.60;99.90
20158;DHT22;10239;56.820;24.416;2022-11-04T18:14:24;8.50;99.90
20158;DHT22;10239;56.820;24.416;2022-11-04T18:16:52;8.50;99.90
20158;DHT22;10239;56.820;24.416;2022-11-04T18:19:21;8.40;99.90
20158;DHT22;10239;56.820;24.416;2022-11-04T18:21:49;8.30;99.90
20158;DHT22;10239;56.820;24.416;2022-11-04T18:24:17;8.30;99.90
20158;DHT22;10239;56.820;24.416;2022-11-04T18:26:45;8.30;99.90
20158;DHT22;10239;56.820;24.416;2022-11-04T18:29:13;8.30;99.90